Time;durP1;ratioP1;P1;durP2;ratioP2;P2;SDS_P1;SDS_P2;PMS_P1;PMS_P2;Temp;Humidity;BMP_temperature;BMP_pressure;BME280_temperature;BME280_humidity;BME280_pressure;Samples;Min_cycle;Max_cycle;Signal;HPM_P1;HPM_P2
2022/03/12 00:02:07;;;;;;;;;6.25;3.00;;;;;20.00;36.71;100714.03;5079709;28;45378;-45
2022/03/12 00:04:33;;;;;;;;;2.75;1.25;;;;;19.98;37.15;100708.00;5079533;27;45447;-44
2022/03/12 00:06:58;;;;;;;;;2.75;2.00;;;;;19.99;37.10;100709.72;5079788;28;45324;-44
2022/03/12 00:09:24;;;;;;;;;3.00;2.00;;;;;19.99;36.78;100710.59;5080039;28;45309;-44
2022/03/12 00:11:51;;;;;;;;;1.25;1.25;;;;;19.97;36.94;100715.06;5079526;27;46350;-45
2022/03/12 00:14:22;;;;;;;;;1.50;1.50;;;;;19.97;36.77;100724.72;5079267;28;45774;-45
2022/03/12 00:16:49;;;;;;;;;1.00;1.00;;;;;19.96;37.22;100723.91;5079621;27;45308;-46
2022/03/12 00:19:14;;;;;;;;;1.00;1.00;;;;;19.96;36.74;100723.91;5079727;28;45333;-44
2022/03/12 00:21:42;;;;;;;;;1.50;1.50;;;;;19.95;36.95;100722.19;5079374;28;45330;-44
2022/03/12 00:24:09;;;;;;;;;1.00;1.00;;;;;19.96;37.04;100736.19;5079478;28;46229;-45
2022/03/12 00:26:38;;;;;;;;;1.25;1.25;;;;;19.95;36.91;100729.25;5079530;27;45260;-44
2022/03/12 00:29:04;;;;;;;;;1.50;1.50;;;;;19.94;37.02;100733.66;5079650;27;45571;-44
2022/03/12 00:31:30;;;;;;;;;1.25;1.25;;;;;19.94;36.92;100738.91;5077781;28;47683;-44
2022/03/12 00:33:56;;;;;;;;;2.00;2.00;;;;;19.92;36.85;100739.00;5079495;27;45373;-44
2022/03/12 00:36:22;;;;;;;;;4.75;2.00;;;;;19.94;36.71;100741.53;5079421;27;45381;-48
2022/03/12 00:38:48;;;;;;;;;1.00;1.00;;;;;19.93;37.44;100747.72;5078669;28;45952;-45
2022/03/12 00:41:14;;;;;;;;;2.50;1.75;;;;;19.93;37.12;100739.84;5078989;28;46308;-44
2022/03/12 00:43:40;;;;;;;;;1.25;1.25;;;;;19.93;36.79;100745.97;5079022;28;45418;-45
2022/03/12 00:46:05;;;;;;;;;2.00;1.25;;;;;19.93;37.27;100747.72;5079062;27;45314;-44
2022/03/12 00:48:32;;;;;;;;;1.25;1.25;;;;;19.91;37.08;100749.59;5077986;27;45359;-44
2022/03/12 00:50:57;;;;;;;;;1.75;1.75;;;;;19.92;36.98;100751.28;5079074;27;46247;-43
2022/03/12 00:53:23;;;;;;;;;2.00;2.00;;;;;19.92;37.38;100764.44;5078945;27;45400;-45
2022/03/12 00:55:48;;;;;;;;;1.25;1.25;;;;;19.90;37.33;100764.53;5078972;28;45467;-44
2022/03/12 00:58:13;;;;;;;;;1.00;1.00;;;;;19.91;37.27;100768.00;5079143;27;45486;-43
2022/03/12 01:00:39;;;;;;;;;1.75;1.75;;;;;19.90;36.77;100775.06;5078813;28;45446;-46
2022/03/12 01:03:04;;;;;;;;;1.50;1.50;;;;;19.90;36.87;100779.44;5078809;28;45361;-46
2022/03/12 01:06:03;;;;;;;;;2.25;1.50;;;;;19.90;36.78;100785.56;5078901;28;45366;-45
2022/03/12 01:08:29;;;;;;;;;3.25;1.50;;;;;19.89;36.85;100783.03;5056203;28;45254;-45
2022/03/12 01:10:57;;;;;;;;;3.50;2.00;;;;;19.89;36.85;100783.03;5078783;28;46076;-45
2022/03/12 01:13:23;;;;;;;;;1.00;1.00;;;;;19.89;36.67;100783.88;5078516;27;45873;-44
2022/03/12 01:15:49;;;;;;;;;0.50;0.50;;;;;19.87;36.96;100791.00;5078550;28;45314;-44
2022/03/12 01:18:17;;;;;;;;;1.50;1.00;;;;;19.88;37.46;100792.69;5078926;27;45619;-44
2022/03/12 01:20:43;;;;;;;;;2.00;2.00;;;;;19.87;37.21;100791.00;5078421;28;45333;-45
2022/03/12 01:23:10;;;;;;;;;1.50;1.00;;;;;19.88;37.06;100792.69;5078442;27;45285;-45
2022/03/12 01:25:35;;;;;;;;;1.00;1.00;;;;;19.89;37.21;100798.81;5078615;28;45358;-46
2022/03/12 01:28:01;;;;;;;;;1.25;1.25;;;;;19.86;37.21;100798.97;5078718;27;45620;-47
2022/03/12 01:30:30;;;;;;;;;0.00;0.00;;;;;19.88;36.85;100799.75;5078495;28;46139;-45
2022/03/12 01:32:55;;;;;;;;;1.25;1.25;;;;;19.87;37.08;100790.16;5078639;28;45813;-46
2022/03/12 01:35:21;;;;;;;;;1.00;1.00;;;;;19.85;37.22;100790.19;5078318;28;45391;-45
2022/03/12 01:37:47;;;;;;;;;1.00;1.00;;;;;19.87;37.20;100798.03;5078550;28;45362;-46
2022/03/12 01:40:13;;;;;;;;;1.50;1.00;;;;;19.86;36.92;100794.56;5076824;28;47514;-47
2022/03/12 01:42:39;;;;;;;;;2.00;2.00;;;;;19.85;37.10;100787.56;5076941;28;45859;-44
2022/03/12 01:45:10;;;;;;;;;1.00;1.00;;;;;19.87;36.93;100790.16;5078246;27;45342;-47
2022/03/12 01:47:36;;;;;;;;;1.00;1.00;;;;;19.86;36.96;100793.72;5078457;27;45409;-45
2022/03/12 01:50:02;;;;;;;;;1.00;1.00;;;;;19.87;37.16;100796.25;5077967;28;46302;-44
2022/03/12 01:52:31;;;;;;;;;3.75;2.00;;;;;19.87;36.90;100793.63;5078446;27;45283;-45
2022/03/12 01:54:57;;;;;;;;;2.00;1.00;;;;;19.86;37.12;100799.81;5076866;28;45332;-45
2022/03/12 01:57:22;;;;;;;;;0.00;0.00;;;;;19.86;36.96;100791.91;5078158;28;45676;-45
2022/03/12 01:59:48;;;;;;;;;1.00;1.00;;;;;19.86;37.11;100804.22;5077689;28;46554;-46
2022/03/12 02:02:15;;;;;;;;;1.25;1.00;;;;;19.86;36.96;100812.97;5077689;28;45368;-46
2022/03/12 02:04:51;;;;;;;;;1.00;1.00;;;;;19.85;37.33;100816.50;5077878;28;45398;-44
2022/03/12 02:07:17;;;;;;;;;1.00;1.00;;;;;19.85;37.34;100819.13;5078054;27;45311;-45
2022/03/12 02:09:44;;;;;;;;;1.00;1.00;;;;;19.85;36.81;100820.91;5077382;27;46411;-44
2022/03/12 02:12:11;;;;;;;;;1.00;1.00;;;;;19.85;37.29;100826.16;5077718;28;45361;-45
2022/03/12 02:14:37;;;;;;;;;1.00;1.00;;;;;19.85;37.07;100823.53;5077547;27;45287;-44
2022/03/12 02:17:07;;;;;;;;;1.00;1.00;;;;;19.84;36.87;100829.72;5078256;28;45881;-46
2022/03/12 02:19:33;;;;;;;;;3.00;0.25;;;;;19.83;37.08;100830.66;5077512;28;45739;-46
2022/03/12 02:22:02;;;;;;;;;0.75;0.75;;;;;19.84;36.80;100832.34;5076428;27;45328;-43
2022/03/12 02:24:30;;;;;;;;;1.25;1.00;;;;;19.83;37.18;100830.66;5077620;28;45322;-47
2022/03/12 02:26:58;;;;;;;;;2.00;1.50;;;;;19.83;37.15;100830.66;5077772;28;45418;-43
2022/03/12 02:29:25;;;;;;;;;2.00;2.00;;;;;19.84;37.24;100827.09;5077236;28;45345;-44
2022/03/12 02:32:03;;;;;;;;;2.00;2.00;;;;;19.84;37.27;100832.34;5077244;28;45264;-45
2022/03/12 02:34:38;;;;;;;;;1.00;1.00;;;;;19.84;37.11;100827.09;5077671;27;45407;-46
2022/03/12 02:37:05;;;;;;;;;0.75;0.75;;;;;19.84;37.14;100824.47;5077331;28;45451;-46
2022/03/12 02:39:31;;;;;;;;;2.25;1.00;;;;;19.83;36.88;100828.91;5077446;27;46174;-44
2022/03/12 02:42:00;;;;;;;;;1.00;1.00;;;;;19.83;37.05;100822.78;5077102;28;45777;-44
2022/03/12 02:44:26;;;;;;;;;1.75;1.75;;;;;19.81;37.29;100820.22;5077246;28;45173;-44
2022/03/12 02:47:16;;;;;;;;;1.75;1.75;;;;;19.82;37.04;100819.31;5077359;28;45542;-48
2022/03/12 02:49:45;;;;;;;;;1.00;1.00;;;;;19.82;37.23;100821.06;5076651;27;45618;-44
2022/03/12 02:52:13;;;;;;;;;2.00;2.00;;;;;19.81;37.02;100828.13;5077024;28;45177;-44
2022/03/12 02:54:40;;;;;;;;;1.00;1.00;;;;;19.80;36.85;100828.19;5077122;28;45410;-44
2022/03/12 02:57:05;;;;;;;;;1.25;1.00;;;;;19.82;36.82;100823.69;5077257;28;45574;-44
2022/03/12 02:59:31;;;;;;;;;0.75;0.75;;;;;19.82;37.41;100828.94;5077073;28;45367;-44
2022/03/12 03:01:59;;;;;;;;;2.75;1.00;;;;;19.81;37.22;100833.38;5076355;27;45457;-45
2022/03/12 03:04:24;;;;;;;;;1.50;1.00;;;;;19.81;37.29;100832.50;5076942;28;45255;-44
2022/03/12 03:06:50;;;;;;;;;1.00;1.00;;;;;19.80;36.93;100828.19;5075828;28;45353;-44
2022/03/12 03:09:15;;;;;;;;;1.00;1.00;;;;;19.81;37.24;100837.78;5075687;28;46470;-44
2022/03/12 03:11:40;;;;;;;;;1.00;1.00;;;;;19.81;37.12;100837.78;5076674;28;45400;-44
2022/03/12 03:14:12;;;;;;;;;0.00;0.00;;;;;19.80;37.26;100836.06;5076593;28;45259;-47
2022/03/12 03:16:38;;;;;;;;;0.50;0.50;;;;;19.80;37.15;100836.06;5076861;28;45418;-44
2022/03/12 03:19:04;;;;;;;;;1.00;1.00;;;;;19.80;37.11;100839.56;5076865;28;46292;-45
2022/03/12 03:21:30;;;;;;;;;0.50;0.50;;;;;19.80;36.65;100836.06;5076720;28;45398;-44
2022/03/12 03:23:55;;;;;;;;;0.00;0.00;;;;;19.78;36.90;100839.66;5076812;28;45252;-46
2022/03/12 03:26:49;;;;;;;;;1.00;1.00;;;;;19.80;36.88;100836.06;5076903;28;45312;-44
2022/03/12 03:29:15;;;;;;;;;0.00;0.00;;;;;19.78;36.84;100839.66;5075740;28;45296;-45
2022/03/12 03:31:41;;;;;;;;;1.50;1.00;;;;;19.79;36.82;100843.13;5076481;28;45322;-45
2022/03/12 03:34:07;;;;;;;;;1.00;1.00;;;;;19.78;36.71;100842.28;5077062;28;45442;-48
2022/03/12 03:36:33;;;;;;;;;1.00;1.00;;;;;19.77;37.12;100837.94;5077141;28;45553;-45
2022/03/12 03:38:58;;;;;;;;;1.00;1.00;;;;;19.78;36.66;100836.16;5076443;28;45367;-44
2022/03/12 03:41:24;;;;;;;;;1.25;1.00;;;;;19.78;37.18;100838.78;5076318;27;45312;-46
2022/03/12 03:43:52;;;;;;;;;2.00;2.00;;;;;19.78;37.03;100844.91;5076593;28;45338;-44
2022/03/12 03:46:20;;;;;;;;;2.00;1.00;;;;;19.78;36.98;100849.31;5076666;28;45356;-45
2022/03/12 03:48:47;;;;;;;;;2.25;0.75;;;;;19.76;37.01;100846.78;5076224;28;46954;-43
2022/03/12 03:51:12;;;;;;;;;1.00;1.00;;;;;19.77;36.87;100851.09;5076121;28;45860;-45
2022/03/12 03:53:38;;;;;;;;;0.00;0.00;;;;;19.78;36.98;100852.81;5076406;28;45251;-46
2022/03/12 03:56:04;;;;;;;;;1.00;1.00;;;;;19.78;36.86;100859.81;5076813;28;45430;-45
2022/03/12 03:58:32;;;;;;;;;1.00;1.00;;;;;19.77;36.68;100856.38;5076246;27;45353;-44
2022/03/12 04:00:58;;;;;;;;;1.50;1.50;;;;;19.77;36.68;100860.75;5076168;28;45328;-44
2022/03/12 04:03:25;;;;;;;;;1.00;1.00;;;;;19.76;37.07;100857.28;5076302;27;45223;-44
2022/03/12 04:05:51;;;;;;;;;0.50;0.50;;;;;19.77;37.12;100851.09;5076359;27;45311;-45
2022/03/12 04:08:17;;;;;;;;;0.50;0.50;;;;;19.77;36.71;100853.72;5075890;27;45673;-46
2022/03/12 04:10:42;;;;;;;;;1.00;1.00;;;;;19.76;37.31;100851.16;5075906;28;45378;-44
2022/03/12 04:13:19;;;;;;;;;1.00;1.00;;;;;19.76;37.05;100851.16;5077948;27;45304;-46
2022/03/12 04:15:46;;;;;;;;;1.00;1.00;;;;;19.75;37.17;100858.22;5079736;27;45510;-47
2022/03/12 04:18:13;;;;;;;;;2.25;2.25;;;;;19.76;36.95;100862.56;5079392;28;46947;-45
2022/03/12 04:20:39;;;;;;;;;1.00;1.00;;;;;19.75;37.09;100860.84;5079169;27;45737;-45
2022/03/12 04:23:05;;;;;;;;;0.00;0.00;;;;;19.75;36.94;100859.97;5078709;27;45304;-45
2022/03/12 04:25:31;;;;;;;;;0.50;0.25;;;;;19.74;36.76;100853.88;5079726;27;45366;-45
2022/03/12 04:27:58;;;;;;;;;0.50;0.50;;;;;19.74;36.91;100855.66;5079218;28;46199;-46
2022/03/12 04:30:23;;;;;;;;;0.00;0.00;;;;;19.74;36.86;100861.78;5079204;28;45903;-45
2022/03/12 04:32:49;;;;;;;;;1.00;1.00;;;;;19.75;37.25;100870.50;5079395;28;45338;-44
2022/03/12 04:35:16;;;;;;;;;1.50;1.50;;;;;19.74;36.68;100872.28;5079495;28;45556;-45
2022/03/12 04:37:42;;;;;;;;;1.00;1.00;;;;;19.73;36.70;100870.59;5079121;27;46953;-43
2022/03/12 04:40:12;;;;;;;;;2.00;1.00;;;;;19.74;37.05;100864.41;5079404;27;45472;-43
2022/03/12 04:42:40;;;;;;;;;1.00;1.00;;;;;19.74;36.87;100867.03;5079455;28;45341;-44
2022/03/12 04:45:08;;;;;;;;;1.00;0.00;;;;;19.74;36.89;100874.06;5079501;28;45350;-44
2022/03/12 04:47:34;;;;;;;;;0.25;0.25;;;;;19.74;37.16;100877.56;5079012;28;46636;-48
2022/03/12 04:50:01;;;;;;;;;1.00;1.00;;;;;19.73;37.34;100873.22;5077726;27;45829;-46
2022/03/12 04:52:27;;;;;;;;;2.00;1.00;;;;;19.72;37.22;100871.50;5079195;27;45403;-45
2022/03/12 04:54:52;;;;;;;;;2.00;1.00;;;;;19.73;37.34;100878.47;5079380;28;45393;-45
2022/03/12 04:57:19;;;;;;;;;2.50;1.50;;;;;19.73;37.09;100872.38;5079112;27;45450;-47
2022/03/12 04:59:45;;;;;;;;;1.00;1.00;;;;;19.73;37.09;100882.91;5078978;28;45335;-45
2022/03/12 05:02:13;;;;;;;;;1.75;1.00;;;;;19.72;36.75;100887.28;5078073;28;45453;-44
2022/03/12 05:04:39;;;;;;;;;1.00;1.00;;;;;19.73;36.86;100894.25;5079453;27;45219;-48
2022/03/12 05:07:09;;;;;;;;;0.25;0.25;;;;;19.72;36.87;100902.22;5078780;27;45177;-45
2022/03/12 05:09:35;;;;;;;;;1.25;1.00;;;;;19.72;37.22;100903.06;5078693;27;45373;-43
2022/03/12 05:12:04;;;;;;;;;0.75;0.75;;;;;19.72;37.19;100902.22;5078672;28;45472;-45
2022/03/12 05:14:29;;;;;;;;;0.25;0.25;;;;;19.72;36.76;100897.81;5078797;28;45228;-44
2022/03/12 05:16:55;;;;;;;;;0.50;0.50;;;;;19.71;37.14;100893.47;5078375;27;46233;-44
2022/03/12 05:19:20;;;;;;;;;0.50;0.25;;;;;19.72;37.15;100908.31;5078546;28;45259;-44
2022/03/12 05:21:46;;;;;;;;;1.00;1.00;;;;;19.71;37.03;100900.53;5078555;28;45358;-44
2022/03/12 05:24:14;;;;;;;;;1.25;1.00;;;;;19.71;37.15;100896.09;5077429;28;45228;-46
2022/03/12 05:26:40;;;;;;;;;0.00;0.00;;;;;19.71;37.27;100900.53;5078619;27;47252;-46
2022/03/12 05:29:05;;;;;;;;;2.25;0.50;;;;;19.71;37.17;100909.25;5078408;27;45359;-44
2022/03/12 05:31:30;;;;;;;;;1.00;1.00;;;;;19.71;37.18;100906.63;5078310;28;45452;-44
2022/03/12 05:33:56;;;;;;;;;1.00;1.00;;;;;19.69;37.16;100908.47;5078574;27;45412;-43
2022/03/12 05:36:21;;;;;;;;;1.00;1.00;;;;;19.70;36.71;100904.91;5076933;28;47942;-43
2022/03/12 05:38:46;;;;;;;;;0.00;0.00;;;;;19.70;37.22;100904.91;5078142;27;45430;-44
2022/03/12 05:41:12;;;;;;;;;0.00;0.00;;;;;19.71;36.95;100911.03;5078746;28;45421;-44
2022/03/12 05:43:43;;;;;;;;;3.75;1.25;;;;;19.68;36.68;100900.69;5078386;28;45489;-45
2022/03/12 05:46:10;;;;;;;;;1.00;1.00;;;;;19.67;36.71;100910.34;5078220;28;47110;-44
2022/03/12 05:48:36;;;;;;;;;3.00;2.00;;;;;19.63;36.75;100908.81;5078076;28;45355;-44
2022/03/12 05:51:02;;;;;;;;;2.00;2.00;;;;;19.61;37.02;100910.66;5078017;28;45358;-44
2022/03/12 05:53:29;;;;;;;;;2.25;2.00;;;;;19.56;36.76;100915.31;5078262;28;45508;-44
2022/03/12 05:55:54;;;;;;;;;1.25;1.25;;;;;19.53;37.08;100925.97;5077706;27;45354;-43
2022/03/12 05:58:21;;;;;;;;;3.00;1.50;;;;;19.47;37.02;100930.59;5077960;27;45240;-45
2022/03/12 06:00:47;;;;;;;;;3.00;2.00;;;;;19.44;36.86;100925.50;5077940;27;45408;-44
2022/03/12 06:03:13;;;;;;;;;1.25;1.25;;;;;19.42;36.82;100926.47;5078316;27;45592;-44
2022/03/12 06:05:43;;;;;;;;;2.75;1.75;;;;;19.38;37.06;100920.53;5077972;27;45809;-46
2022/03/12 06:08:13;;;;;;;;;1.25;1.25;;;;;19.35;36.74;100925.91;5078170;27;45741;-45
2022/03/12 06:10:42;;;;;;;;;1.00;1.00;;;;;19.34;36.92;100929.50;5078053;28;45566;-48
2022/03/12 06:13:11;;;;;;;;;2.00;1.00;;;;;19.33;36.59;100933.06;5077807;27;45287;-46
2022/03/12 06:15:38;;;;;;;;;0.75;0.75;;;;;19.33;36.72;100934.81;5077296;27;47295;-46
2022/03/12 06:18:03;;;;;;;;;1.00;1.00;;;;;19.33;37.19;100937.44;5077484;27;45886;-45
2022/03/12 06:20:28;;;;;;;;;1.00;1.00;;;;;19.34;36.58;100939.16;5077628;28;46067;-45
2022/03/12 06:22:54;;;;;;;;;2.00;2.00;;;;;19.37;36.76;100942.47;5077937;28;45760;-45
2022/03/12 06:25:22;;;;;;;;;1.25;1.25;;;;;19.39;36.70;100943.25;5077268;28;45896;-43
2022/03/12 06:27:53;;;;;;;;;2.00;2.00;;;;;19.39;37.02;100951.16;5076205;28;45292;-44
2022/03/12 06:30:21;;;;;;;;;1.00;1.00;;;;;19.40;36.67;100960.72;5077483;28;45929;-45
2022/03/12 06:32:47;;;;;;;;;2.00;2.00;;;;;19.39;36.50;100961.66;5077628;28;45403;-44
2022/03/12 06:35:13;;;;;;;;;1.50;1.50;;;;;19.43;36.90;100970.25;5076618;27;46130;-43
2022/03/12 06:37:40;;;;;;;;;1.00;1.00;;;;;19.44;36.80;100970.19;5077046;28;45271;-43
2022/03/12 06:40:08;;;;;;;;;0.75;0.00;;;;;19.43;36.49;100968.47;5076144;28;45363;-43
2022/03/12 06:42:35;;;;;;;;;1.75;1.75;;;;;19.44;36.87;100964.94;5077345;27;45432;-44
2022/03/12 06:45:01;;;;;;;;;1.25;1.00;;;;;19.45;36.76;100971.03;5076989;28;45425;-43
2022/03/12 06:47:32;;;;;;;;;2.25;1.00;;;;;19.45;36.68;100973.66;5077037;27;45484;-43
2022/03/12 06:49:59;;;;;;;;;0.25;0.25;;;;;19.46;36.73;100976.19;5077031;28;45548;-43
2022/03/12 06:52:27;;;;;;;;;0.75;0.75;;;;;19.46;36.75;100983.25;5077533;27;45317;-44
2022/03/12 06:54:53;;;;;;;;;1.00;1.00;;;;;19.45;36.62;100987.66;5076945;28;46947;-44
2022/03/12 06:57:19;;;;;;;;;2.50;1.50;;;;;19.45;36.65;100995.53;5076935;27;45340;-43
2022/03/12 06:59:44;;;;;;;;;3.50;2.00;;;;;19.44;36.68;100999.09;5077461;27;45369;-44
2022/03/12 07:02:10;;;;;;;;;1.00;1.00;;;;;19.44;36.62;101004.34;5077241;27;45338;-45
2022/03/12 07:04:35;;;;;;;;;1.00;1.00;;;;;19.45;36.72;101011.31;5075383;27;48304;-43
2022/03/12 07:07:01;;;;;;;;;1.50;1.50;;;;;19.45;36.32;101015.72;5076891;27;45395;-43
2022/03/12 07:09:28;;;;;;;;;1.00;1.00;;;;;19.44;36.72;101014.88;5075320;28;45288;-45
2022/03/12 07:11:55;;;;;;;;;1.00;1.00;;;;;19.46;36.73;101020.03;5076862;27;45549;-43
2022/03/12 07:14:21;;;;;;;;;1.25;1.25;;;;;19.45;36.31;101026.22;5076310;27;45512;-45
2022/03/12 07:16:46;;;;;;;;;2.00;1.00;;;;;19.45;36.66;101027.09;5076656;27;45889;-44
2022/03/12 07:19:12;;;;;;;;;1.00;1.00;;;;;19.43;36.47;101023.69;5077171;28;45384;-43
2022/03/12 07:21:37;;;;;;;;;1.75;1.75;;;;;19.45;36.65;101018.34;5076854;28;45280;-47
2022/03/12 07:24:03;;;;;;;;;1.00;1.00;;;;;19.46;36.83;101013.00;5076258;28;46431;-44
2022/03/12 07:26:29;;;;;;;;;0.00;0.00;;;;;19.47;36.63;101019.97;5075279;28;45925;-43
2022/03/12 07:28:54;;;;;;;;;1.00;1.00;;;;;19.46;36.78;101020.88;5076531;27;45295;-44
2022/03/12 07:31:21;;;;;;;;;1.00;1.00;;;;;19.47;36.46;101021.75;5075337;28;45487;-45
2022/03/12 07:33:46;;;;;;;;;1.00;1.00;;;;;19.46;36.55;101023.50;5076607;27;46210;-44
2022/03/12 07:36:12;;;;;;;;;2.00;2.00;;;;;19.47;36.85;101029.63;5076362;27;45346;-47
2022/03/12 07:38:37;;;;;;;;;1.00;1.00;;;;;19.48;36.44;101039.22;5076624;28;45172;-43
2022/03/12 07:41:02;;;;;;;;;2.50;1.00;;;;;19.49;36.75;101034.81;5075308;27;45577;-43
2022/03/12 07:43:28;;;;;;;;;1.00;1.00;;;;;19.49;36.66;101032.19;5076337;27;46168;-43
2022/03/12 07:45:53;;;;;;;;;1.00;1.00;;;;;19.48;37.02;101026.09;5076383;27;45443;-44
2022/03/12 07:48:19;;;;;;;;;1.00;1.00;;;;;19.48;36.77;101028.72;5079956;28;45330;-43
2022/03/12 07:50:45;;;;;;;;;1.25;1.25;;;;;19.49;36.55;101029.56;5080423;28;45640;-43
2022/03/12 07:53:12;;;;;;;;;2.00;2.00;;;;;19.49;36.42;101025.16;5078385;28;48345;-44
2022/03/12 07:55:41;;;;;;;;;1.00;1.00;;;;;19.49;36.39;101032.19;5079719;28;45729;-44
2022/03/12 07:58:07;;;;;;;;;4.00;1.25;;;;;19.50;36.71;101033.88;5079949;27;45422;-46
2022/03/12 08:00:33;;;;;;;;;1.00;1.00;;;;;19.50;36.84;101032.13;5080151;28;45345;-43
2022/03/12 08:02:59;;;;;;;;;0.75;0.75;;;;;19.51;36.50;101046.09;5079718;27;45601;-43
2022/03/12 08:05:25;;;;;;;;;2.00;2.00;;;;;19.51;36.86;101054.00;5079999;28;45285;-44
2022/03/12 08:07:55;;;;;;;;;0.50;0.50;;;;;19.51;36.70;101072.41;5078510;27;45469;-44
2022/03/12 08:10:21;;;;;;;;;3.75;0.00;;;;;19.51;36.72;101073.25;5078699;28;45303;-44
2022/03/12 08:12:47;;;;;;;;;2.00;1.00;;;;;19.49;36.97;101075.09;5079982;28;46614;-45
2022/03/12 08:15:15;;;;;;;;;2.00;1.00;;;;;19.50;36.43;101082.06;5079545;28;45816;-45
2022/03/12 08:17:41;;;;;;;;;1.75;1.75;;;;;19.49;36.93;101082.13;5079726;28;45382;-44
2022/03/12 08:20:08;;;;;;;;;2.75;1.00;;;;;19.50;36.58;101081.19;5079843;28;45548;-43
2022/03/12 08:22:39;;;;;;;;;1.00;1.00;;;;;19.49;36.93;101082.13;5079458;28;46530;-44
2022/03/12 08:25:05;;;;;;;;;2.00;2.00;;;;;19.50;37.26;101092.59;5079519;27;45877;-45
2022/03/12 08:27:32;;;;;;;;;1.00;1.00;;;;;19.52;37.02;101097.75;5079488;27;45519;-44
2022/03/12 08:29:58;;;;;;;;;0.00;0.00;;;;;19.51;37.26;101093.44;5079608;28;45500;-44
2022/03/12 08:32:24;;;;;;;;;1.25;0.75;;;;;19.52;36.76;101105.66;5079124;27;46515;-44
2022/03/12 08:34:49;;;;;;;;;2.00;1.00;;;;;19.52;37.09;101100.41;5079491;27;45300;-46
2022/03/12 08:37:15;;;;;;;;;3.00;1.00;;;;;19.54;37.12;101104.66;5079291;27;45372;-45
2022/03/12 08:39:41;;;;;;;;;1.00;1.00;;;;;19.54;37.21;101106.44;5079580;28;45768;-45
2022/03/12 08:42:07;;;;;;;;;3.75;1.25;;;;;19.54;37.03;101104.66;5079140;27;45746;-48
2022/03/12 08:44:32;;;;;;;;;1.00;1.00;;;;;19.54;36.74;101102.03;5078941;27;45173;-46
2022/03/12 08:46:58;;;;;;;;;3.00;2.00;;;;;19.56;36.77;101102.81;5079084;28;45406;-45
2022/03/12 08:49:24;;;;;;;;;0.75;0.75;;;;;19.56;36.90;101100.19;5079381;27;45540;-44
2022/03/12 08:51:49;;;;;;;;;1.00;1.00;;;;;19.56;37.05;101104.59;5078911;28;47278;-45
2022/03/12 08:54:14;;;;;;;;;0.25;0.25;;;;;19.56;37.05;101094.06;5078937;27;45375;-43
2022/03/12 08:56:40;;;;;;;;;1.00;1.00;;;;;19.56;36.88;101096.72;5078975;28;45334;-44
2022/03/12 08:59:07;;;;;;;;;4.50;1.25;;;;;19.55;36.95;101106.34;5078291;28;45333;-46
2022/03/12 09:01:33;;;;;;;;;0.75;0.25;;;;;19.55;37.17;101103.72;5078768;28;46363;-45
2022/03/12 09:03:58;;;;;;;;;3.50;0.75;;;;;19.55;37.09;101108.16;5078737;28;45277;-43
2022/03/12 09:06:27;;;;;;;;;1.00;1.00;;;;;19.55;37.01;101105.50;5078676;27;45287;-45
2022/03/12 09:08:53;;;;;;;;;2.00;1.00;;;;;19.54;36.62;101093.28;5079017;28;45445;-44
2022/03/12 09:11:19;;;;;;;;;1.00;1.00;;;;;19.54;36.74;101094.13;5078995;27;46421;-44
2022/03/12 09:13:46;;;;;;;;;0.00;0.00;;;;;19.53;37.12;101092.44;5078684;28;45769;-47
2022/03/12 09:16:14;;;;;;;;;2.00;2.00;;;;;19.55;37.07;101095.84;5077402;28;45533;-47
2022/03/12 09:18:41;;;;;;;;;0.50;0.50;;;;;19.54;36.81;101099.38;5078824;28;45312;-45
2022/03/12 09:21:07;;;;;;;;;1.00;1.00;;;;;19.54;36.77;101096.75;5078388;27;46253;-45
2022/03/12 09:23:34;;;;;;;;;2.50;1.00;;;;;19.54;36.69;101096.75;5078313;27;45418;-47
2022/03/12 09:25:59;;;;;;;;;2.25;2.25;;;;;19.54;36.75;101093.28;5078459;27;45385;-44
2022/03/12 09:28:25;;;;;;;;;2.75;2.00;;;;;19.55;36.64;101100.25;5078773;28;45679;-44
2022/03/12 09:30:51;;;;;;;;;1.50;1.50;;;;;19.54;36.78;101099.38;5077062;28;46481;-44
2022/03/12 09:33:19;;;;;;;;;0.75;0.75;;;;;19.57;37.01;101093.13;5077859;27;45328;-47
2022/03/12 09:35:45;;;;;;;;;1.00;1.00;;;;;19.59;37.10;101101.78;5078480;28;45321;-45
2022/03/12 09:38:10;;;;;;;;;1.00;1.00;;;;;19.55;36.91;101089.75;5078687;28;45166;-48
2022/03/12 09:40:36;;;;;;;;;1.00;1.00;;;;;19.61;37.22;101097.31;5077978;27;45274;-48
2022/03/12 09:43:03;;;;;;;;;1.00;1.00;;;;;19.61;36.79;101092.94;5078231;28;45419;-44
2022/03/12 09:45:28;;;;;;;;;2.00;2.00;;;;;19.56;36.81;101083.56;5077117;27;45712;-47
2022/03/12 09:47:54;;;;;;;;;1.00;1.00;;;;;19.61;36.72;101086.81;5078521;28;45697;-47
2022/03/12 09:50:21;;;;;;;;;0.75;0.75;;;;;19.56;37.11;101075.69;5076838;28;46948;-47
2022/03/12 09:52:46;;;;;;;;;1.00;1.00;;;;;19.55;37.15;101076.59;5078035;28;45829;-44
2022/03/12 09:55:13;;;;;;;;;1.25;0.50;;;;;19.59;37.13;101083.41;5078098;28;45444;-45
2022/03/12 09:57:38;;;;;;;;;1.25;1.00;;;;;19.59;37.06;101086.03;5078336;27;45209;-44
2022/03/12 10:00:06;;;;;;;;;1.00;1.00;;;;;19.60;37.17;101087.72;5077799;28;46085;-45
2022/03/12 10:02:31;;;;;;;;;3.00;3.00;;;;;19.60;36.80;101095.63;5077823;27;45169;-50
2022/03/12 10:04:57;;;;;;;;;1.00;1.00;;;;;19.59;36.59;101091.28;5078026;28;45186;-47
2022/03/12 10:07:23;;;;;;;;;1.50;1.50;;;;;19.60;36.83;101096.50;5078531;28;45203;-45
2022/03/12 10:09:49;;;;;;;;;1.00;1.00;;;;;19.62;37.00;101085.88;5076628;28;45381;-45
2022/03/12 10:12:19;;;;;;;;;1.25;1.25;;;;;19.61;37.22;101092.94;5077371;28;45470;-46
2022/03/12 10:14:45;;;;;;;;;2.00;2.00;;;;;19.62;37.21;101088.53;5077669;28;45413;-45
2022/03/12 10:17:11;;;;;;;;;2.50;1.25;;;;;19.60;36.86;101085.97;5078005;27;45330;-44
2022/03/12 10:19:38;;;;;;;;;1.00;1.00;;;;;19.62;36.68;101080.63;5077523;28;45705;-43
2022/03/12 10:22:08;;;;;;;;;1.75;1.00;;;;;19.63;37.21;101083.16;5077533;28;45365;-45
2022/03/12 10:24:35;;;;;;;;;1.00;1.00;;;;;19.62;36.83;101078.84;5077424;28;45286;-44
2022/03/12 10:27:01;;;;;;;;;1.00;1.00;;;;;19.64;37.38;101073.53;5077834;28;45614;-44
2022/03/12 10:29:26;;;;;;;;;1.25;1.25;;;;;19.66;37.04;101076.06;5075860;27;46502;-45
2022/03/12 10:31:52;;;;;;;;;2.00;1.00;;;;;19.66;37.18;101079.56;5077637;27;45183;-44
2022/03/12 10:34:22;;;;;;;;;3.00;1.25;;;;;19.67;37.15;101083.03;5077248;27;45331;-44
2022/03/12 10:36:49;;;;;;;;;1.00;1.00;;;;;19.66;37.05;101082.19;5077664;28;45564;-45
2022/03/12 10:39:17;;;;;;;;;3.00;1.75;;;;;19.67;36.79;101083.03;5077013;28;46512;-44
2022/03/12 10:41:43;;;;;;;;;1.00;1.00;;;;;19.66;36.99;101082.19;5077123;27;45834;-44
2022/03/12 10:44:10;;;;;;;;;2.00;0.25;;;;;19.66;36.88;101076.94;5077078;27;45295;-45
2022/03/12 10:46:40;;;;;;;;;0.75;0.75;;;;;19.67;37.26;101080.41;5076677;28;45595;-44
2022/03/12 10:49:08;;;;;;;;;3.00;2.00;;;;;19.66;36.82;101078.69;5075403;27;47058;-44
2022/03/12 10:51:40;;;;;;;;;2.00;2.00;;;;;19.66;36.92;101071.69;5076280;27;45791;-44
2022/03/12 10:54:09;;;;;;;;;1.25;1.25;;;;;19.65;36.86;101071.72;5074229;28;45360;-44
2022/03/12 10:56:52;;;;;;;;;1.00;1.00;;;;;19.67;37.38;101077.78;5076672;27;45482;-47
2022/03/12 10:59:22;;;;;;;;;2.75;1.00;;;;;19.67;37.31;101075.16;5076194;28;45452;-45
2022/03/12 11:01:47;;;;;;;;;1.50;1.50;;;;;19.67;36.98;101078.66;5076711;27;45749;-45
2022/03/12 11:04:19;;;;;;;;;3.00;1.00;;;;;19.68;37.30;101071.59;5077072;27;45250;-45
2022/03/12 11:06:45;;;;;;;;;0.25;0.25;;;;;19.69;37.36;101068.88;5076755;27;45418;-42
2022/03/12 11:09:18;;;;;;;;;3.00;1.00;;;;;19.68;37.46;101067.19;5076598;27;46074;-42
2022/03/12 11:11:44;;;;;;;;;1.00;1.00;;;;;19.68;37.28;101067.19;5076383;27;45347;-44
2022/03/12 11:14:18;;;;;;;;;1.00;1.00;;;;;19.69;36.91;101054.91;5076788;27;45381;-44
2022/03/12 11:16:50;;;;;;;;;2.00;1.00;;;;;19.69;37.25;101055.72;5075839;27;45391;-46
2022/03/12 11:19:17;;;;;;;;;2.75;0.25;;;;;19.70;37.34;101054.81;5072834;28;46944;-45
2022/03/12 11:21:51;;;;;;;;;1.25;1.00;;;;;19.69;36.96;101050.47;5074259;27;45456;-45
2022/03/12 11:24:25;;;;;;;;;1.00;1.00;;;;;19.69;37.11;101050.47;5076610;27;45394;-44